| time (UTC) | temp F | wind direction | speed MPH | gust MPH | rain 1hr in | rain 24hr in | rain mn in | humidity % | barometer mb |
| 20260510174732 | 48 | 16 | 2.0 | 7.0 | 0.00 | 0.00 | 0.00 | 55 | 1015.7 |
| 20260510173733 | 49 | 344 | 1.0 | 7.0 | 0.00 | 0.00 | 0.00 | 55 | 1015.7 |
| 20260510173208 | 50 | 289 | 1.0 | 7.0 | 0.00 | 0.00 | 0.00 | 53 | 1015.9 |
| 20260510171731 | 50 | 325 | 2.0 | 6.0 | 0.00 | 0.00 | 0.00 | 53 | 1016.0 |
| 20260510170731 | 51 | 291 | 0.0 | 3.0 | 0.00 | 0.00 | 0.00 | 54 | 1016.2 |
| 20260510165730 | 50 | 350 | 1.0 | 6.0 | 0.00 | 0.00 | 0.00 | 55 | 1016.3 |
| 20260510165215 | 50 | 239 | 2.0 | 6.0 | 0.00 | 0.00 | 0.00 | 57 | 1016.3 |
| 20260510163731 | 51 | 327 | 3.0 | 7.0 | 0.00 | 0.00 | 0.00 | 56 | 1016.3 |
| 20260510162729 | 52 | 335 | 3.0 | 7.0 | 0.00 | 0.00 | 0.00 | 56 | 1016.6 |
| 20260510161729 | 52 | 6 | 3.0 | 7.0 | 0.00 | 0.00 | 0.00 | 56 | 1016.7 |
| 20260510161206 | 54 | 295 | 3.0 | 8.0 | 0.00 | 0.00 | 0.00 | 52 | 1016.6 |
| 20260510155658 | 53 | 278 | 1.0 | 7.0 | 0.00 | 0.00 | 0.00 | 53 | 1016.9 |
| 20260510154657 | 54 | 240 | 1.0 | 7.0 | 0.00 | 0.00 | 0.00 | 52 | 1017.1 |
| 20260510153657 | 53 | 284 | 2.0 | 7.0 | 0.00 | 0.00 | 0.00 | 53 | 1017.0 |
| 20260510152657 | 53 | 21 | 3.0 | 8.0 | 0.00 | 0.00 | 0.00 | 53 | 1017.1 |
| 20260510152119 | 53 | 4 | 0.0 | 8.0 | 0.00 | 0.00 | 0.00 | 54 | 1017.3 |
| 20260510150627 | 54 | 6 | 3.0 | 11.0 | 0.00 | 0.00 | 0.00 | 53 | 1017.1 |
| 20260510145625 | 55 | 280 | 3.0 | 10.0 | 0.00 | 0.00 | 0.00 | 53 | 1017.6 |
| 20260510144626 | 55 | 251 | 1.0 | 9.0 | 0.00 | 0.00 | 0.00 | 52 | 1017.4 |
| 20260510143555 | 57 | 146 | 0.0 | 7.0 | 0.00 | 0.00 | 0.00 | 47 | 1017.4 |
| 20260510142556 | 54 | 314 | 1.0 | 7.0 | 0.00 | 0.00 | 0.00 | 52 | 1017.6 |
| 20260510141555 | 56 | 329 | 4.0 | 9.0 | 0.00 | 0.00 | 0.00 | 49 | 1017.9 |
| 20260510140553 | 56 | 294 | 1.0 | 6.0 | 0.00 | 0.00 | 0.00 | 49 | 1017.7 |
| 20260510135523 | 55 | 237 | 1.0 | 6.0 | 0.00 | 0.00 | 0.00 | 52 | 1018.0 |
| 20260510134523 | 54 | 8 | 3.0 | 10.0 | 0.00 | 0.00 | 0.00 | 53 | 1018.0 |
| 20260510133522 | 55 | 352 | 5.0 | 10.0 | 0.00 | 0.00 | 0.00 | 53 | 1017.9 |
| 20260510132522 | 55 | 4 | 2.0 | 9.0 | 0.00 | 0.00 | 0.00 | 54 | 1017.9 |
| 20260510131451 | 54 | 336 | 3.0 | 8.0 | 0.00 | 0.00 | 0.00 | 57 | 1018.2 |
| 20260510130930 | 55 | 277 | 2.0 | 7.0 | 0.00 | 0.00 | 0.00 | 56 | 1018.1 |
| 20260510125451 | 54 | 352 | 2.0 | 10.0 | 0.00 | 0.00 | 0.00 | 58 | 1018.2 |
| 20260510124450 | 53 | 353 | 6.0 | 10.0 | 0.00 | 0.00 | 0.00 | 59 | 1018.5 |
| 20260510123451 | 54 | 301 | 4.0 | 8.0 | 0.00 | 0.00 | 0.00 | 59 | 1018.5 |
| 20260510122450 | 55 | 345 | 2.0 | 7.0 | 0.00 | 0.00 | 0.00 | 58 | 1018.5 |
| 20260510121449 | 54 | 241 | 1.0 | 8.0 | 0.00 | 0.00 | 0.00 | 59 | 1018.5 |
| 20260510120450 | 55 | 282 | 3.0 | 7.0 | 0.00 | 0.00 | 0.00 | 57 | 1018.7 |
| 20260510115448 | 55 | 242 | 1.0 | 7.0 | 0.00 | 0.00 | 0.00 | 60 | 1018.6 |
| 20260510114449 | 54 | 286 | 1.0 | 7.0 | 0.00 | 0.00 | 0.00 | 61 | 1018.7 |
| 20260510113447 | 55 | 297 | 3.0 | 7.0 | 0.00 | 0.00 | 0.00 | 60 | 1019.0 |
| 20260510112446 | 53 | 250 | 2.0 | 8.0 | 0.00 | 0.00 | 0.00 | 63 | 1018.7 |
| 20260510111417 | 53 | 39 | 1.0 | 8.0 | 0.00 | 0.00 | 0.00 | 64 | 1019.0 |
| 20260510110417 | 52 | 266 | 0.0 | 8.0 | 0.00 | 0.00 | 0.00 | 66 | 1019.1 |
| 20260510105416 | 52 | 295 | 1.0 | 8.0 | 0.00 | 0.00 | 0.00 | 65 | 1019.2 |
| 20260510104416 | 52 | 275 | 2.0 | 8.0 | 0.00 | 0.00 | 0.00 | 65 | 1019.2 |
| 20260510103416 | 52 | 351 | 3.0 | 8.0 | 0.00 | 0.00 | 0.00 | 66 | 1019.2 |
| 20260510102414 | 52 | 305 | 2.0 | 8.0 | 0.00 | 0.00 | 0.00 | 66 | 1019.2 |
| 20260510101416 | 52 | 297 | 2.0 | 9.0 | 0.00 | 0.00 | 0.00 | 66 | 1019.1 |
| 20260510100857 | 52 | 348 | 4.0 | 9.0 | 0.00 | 0.00 | 0.00 | 66 | 1019.1 |
| 20260510095413 | 53 | 319 | 3.0 | 8.0 | 0.00 | 0.00 | 0.00 | 66 | 1019.3 |
| 20260510094413 | 53 | 274 | 0.0 | 7.0 | 0.00 | 0.00 | 0.00 | 64 | 1019.2 |
| 20260510093414 | 52 | 288 | 1.0 | 7.0 | 0.00 | 0.00 | 0.00 | 67 | 1019.4 |
| 20260510092413 | 52 | 238 | 2.0 | 7.0 | 0.00 | 0.00 | 0.00 | 66 | 1019.4 |
| 20260510091412 | 51 | 296 | 2.0 | 7.0 | 0.00 | 0.00 | 0.00 | 68 | 1019.5 |
| 20260510090412 | 52 | 199 | 2.0 | 6.0 | 0.00 | 0.00 | 0.00 | 69 | 1019.7 |
| 20260510085412 | 52 | 2 | 2.0 | 8.0 | 0.00 | 0.00 | 0.00 | 70 | 1019.6 |
| 20260510084848 | 51 | 268 | 1.0 | 6.0 | 0.00 | 0.00 | 0.00 | 73 | 1019.7 |
| 20260510083850 | 50 | 310 | 1.0 | 6.0 | 0.00 | 0.00 | 0.00 | 75 | 1019.7 |
| 20260510082410 | 50 | 279 | 0.0 | 7.0 | 0.00 | 0.00 | 0.00 | 76 | 1019.6 |
| 20260510081852 | 50 | 259 | 2.0 | 8.0 | 0.00 | 0.00 | 0.00 | 77 | 1019.7 |
| 20260510080409 | 50 | 103 | 0.0 | 6.0 | 0.00 | 0.00 | 0.00 | 77 | 1019.7 |
| 20260510075408 | 50 | 333 | 1.0 | 8.0 | 0.00 | 0.00 | 0.00 | 77 | 1019.7 |
| 20260510074849 | 50 | 18 | 2.0 | 6.0 | 0.00 | 0.00 | 0.00 | 78 | 1019.8 |
| 20260510073409 | 50 | 287 | 2.0 | 8.0 | 0.00 | 0.00 | 0.00 | 78 | 1019.6 |
| 20260510072409 | 51 | 280 | 2.0 | 7.0 | 0.00 | 0.00 | 0.00 | 78 | 1019.6 |
| 20260510071409 | 50 | 289 | 3.0 | 7.0 | 0.00 | 0.00 | 0.00 | 79 | 1019.4 |
| 20260510070338 | 50 | 354 | 1.0 | 6.0 | 0.00 | 0.00 | 0.00 | 80 | 1019.3 |
| 20260510065336 | 50 | 308 | 1.0 | 3.0 | 0.00 | 0.00 | 0.00 | 79 | 1019.4 |
| 20260510064336 | 50 | 347 | 2.0 | 10.0 | 0.00 | 0.00 | 0.00 | 79 | 1019.1 |
| 20260510063335 | 51 | 270 | 2.0 | 10.0 | 0.00 | 0.00 | 0.00 | 78 | 1019.0 |
| 20260510062307 | 51 | 350 | 3.0 | 8.0 | 0.00 | 0.00 | 0.00 | 77 | 1019.0 |
| 20260510061306 | 51 | 312 | 1.0 | 8.0 | 0.00 | 0.00 | 0.00 | 78 | 1018.9 |
| 20260510060304 | 51 | 311 | 2.0 | 7.0 | 0.00 | 0.00 | 0.00 | 79 | 1018.7 |
| 20260510055307 | 50 | 242 | 2.0 | 7.0 | 0.00 | 0.00 | 0.00 | 80 | 1018.7 |
| 20260510054303 | 50 | 253 | 1.0 | 6.0 | 0.00 | 0.00 | 0.00 | 82 | 1018.6 |
| 20260510053303 | 50 | 343 | 1.0 | 8.0 | 0.00 | 0.00 | 0.00 | 84 | 1018.4 |
| 20260510052748 | 49 | 308 | 2.0 | 7.0 | 0.00 | 0.00 | 0.00 | 84 | 1018.8 |
| 20260510051302 | 49 | 287 | 1.0 | 4.0 | 0.00 | 0.00 | 0.00 | 86 | 1018.7 |
| 20260510050301 | 49 | 285 | 0.0 | 4.0 | 0.00 | 0.00 | 0.00 | 87 | 1018.7 |
| 20260510045301 | 49 | 308 | 1.0 | 4.0 | 0.00 | 0.00 | 0.00 | 88 | 1018.7 |
| 20260510044734 | 48 | 292 | 0.0 | 4.0 | 0.00 | 0.00 | 0.00 | 89 | 1018.9 |
| 20260510043300 | 48 | 277 | 1.0 | 3.0 | 0.00 | 0.00 | 0.00 | 89 | 1018.9 |
| 20260510042300 | 48 | 291 | 0.0 | 2.0 | 0.00 | 0.00 | 0.00 | 89 | 1019.1 |
| 20260510040734 | 47 | 302 | 0.0 | 1.0 | 0.00 | 0.00 | 0.00 | 88 | 1019.0 |
| 20260510035300 | 47 | 302 | 0.0 | 1.0 | 0.00 | 0.00 | 0.00 | 87 | 1019.1 |
| 20260510034300 | 48 | 300 | 0.0 | 1.0 | 0.00 | 0.00 | 0.00 | 87 | 1018.9 |
| 20260510033258 | 48 | 282 | 0.0 | 3.0 | 0.00 | 0.00 | 0.00 | 87 | 1019.0 |
| 20260510032257 | 48 | 311 | 0.0 | 2.0 | 0.00 | 0.00 | 0.00 | 88 | 1019.1 |
| 20260510031258 | 47 | 312 | 0.0 | 2.0 | 0.00 | 0.00 | 0.00 | 89 | 1019.2 |
| 20260510030732 | 47 | 300 | 0.0 | 1.0 | 0.00 | 0.00 | 0.00 | 89 | 1019.5 |
| 20260510025258 | 48 | 302 | 0.0 | 1.0 | 0.00 | 0.00 | 0.00 | 89 | 1019.4 |
| 20260510024257 | 48 | 299 | 0.0 | 2.0 | 0.00 | 0.00 | 0.00 | 89 | 1019.5 |
| 20260510023257 | 48 | 298 | 1.0 | 2.0 | 0.00 | 0.00 | 0.00 | 89 | 1019.5 |
| 20260510022256 | 48 | 312 | 0.0 | 1.0 | 0.00 | 0.00 | 0.00 | 88 | 1019.3 |
| 20260510021255 | 48 | 355 | 0.0 | 1.0 | 0.00 | 0.00 | 0.00 | 88 | 1019.4 |
| 20260510020254 | 48 | 298 | 1.0 | 1.0 | 0.00 | 0.00 | 0.00 | 88 | 1019.3 |
| 20260510015254 | 48 | 342 | 0.0 | 1.0 | 0.00 | 0.00 | 0.00 | 88 | 1019.3 |
| 20260510014254 | 49 | 352 | 0.0 | 1.0 | 0.00 | 0.00 | 0.00 | 87 | 1019.5 |
| 20260510013223 | 49 | 349 | 0.0 | 2.0 | 0.00 | 0.00 | 0.00 | 87 | 1019.5 |
| 20260510012223 | 49 | 330 | 0.0 | 2.0 | 0.00 | 0.00 | 0.00 | 87 | 1019.5 |
| 20260510011222 | 49 | 317 | 0.0 | 2.0 | 0.00 | 0.00 | 0.00 | 87 | 1019.3 |
| 20260510010224 | 49 | 335 | 0.0 | 2.0 | 0.00 | 0.00 | 0.00 | 87 | 1019.5 |
| 20260510005629 | 49 | 278 | 0.0 | 2.0 | 0.00 | 0.00 | 0.00 | 86 | 1019.2 |
| 20260510004623 | 50 | 318 | 0.0 | 3.0 | 0.00 | 0.00 | 0.00 | 86 | 1019.2 |
| 20260510003153 | 50 | 305 | 0.0 | 3.0 | 0.00 | 0.00 | 0.00 | 85 | 1019.5 |
| 20260510002150 | 50 | 281 | 2.0 | 7.0 | 0.00 | 0.00 | 0.00 | 83 | 1019.4 |
| 20260510001629 | 51 | 254 | 1.0 | 4.0 | 0.00 | 0.00 | 0.00 | 83 | 1019.6 |
| 20260510000632 | 52 | 285 | 0.0 | 3.0 | 0.00 | 0.00 | 0.00 | 83 | 1019.9 |
| 20260509235149 | 52 | 319 | 0.0 | 3.0 | 0.00 | 0.00 | 0.00 | 84 | 1020.0 |
| 20260509234149 | 52 | 335 | 1.0 | 3.0 | 0.00 | 0.00 | 0.00 | 84 | 1019.9 |
| 20260509233149 | 52 | 297 | 1.0 | 3.0 | 0.00 | 0.00 | 0.00 | 85 | 1020.0 |
| 20260509232150 | 52 | 282 | 0.0 | 3.0 | 0.00 | 0.00 | 0.00 | 84 | 1019.7 |
| 20260509231626 | 52 | 277 | 0.0 | 3.0 | 0.00 | 0.00 | 0.00 | 84 | 1019.8 |
| 20260509230147 | 52 | 244 | 0.0 | 4.0 | 0.00 | 0.00 | 0.00 | 84 | 1019.6 |
| 20260509225631 | 52 | 321 | 1.0 | 6.0 | 0.00 | 0.00 | 0.00 | 84 | 1019.8 |
| 20260509224147 | 52 | 262 | 0.0 | 7.0 | 0.00 | 0.00 | 0.00 | 84 | 1019.4 |
| 20260509223146 | 52 | 333 | 2.0 | 6.0 | 0.00 | 0.00 | 0.00 | 84 | 1019.7 |
| 20260509222147 | 52 | 290 | 0.0 | 2.0 | 0.00 | 0.00 | 0.00 | 85 | 1019.5 |
| 20260509221145 | 52 | 315 | 1.0 | 4.0 | 0.00 | 0.00 | 0.00 | 85 | 1019.6 |
| 20260509220145 | 52 | 343 | 1.0 | 3.0 | 0.00 | 0.00 | 0.00 | 86 | 1019.5 |
| 20260509215144 | 52 | 266 | 0.0 | 2.0 | 0.00 | 0.00 | 0.00 | 87 | 1019.3 |
| 20260509214114 | 52 | 250 | 0.0 | 2.0 | 0.00 | 0.00 | 0.00 | 87 | 1019.3 |
| 20260509213546 | 52 | 271 | 0.0 | 1.0 | 0.00 | 0.00 | 0.00 | 87 | 1019.2 |
| 20260509212043 | 52 | 328 | 1.0 | 2.0 | 0.00 | 0.00 | 0.00 | 87 | 1019.5 |
| 20260509211045 | 52 | 304 | 0.0 | 2.0 | 0.00 | 0.00 | 0.00 | 87 | 1019.6 |
| 20260509210044 | 52 | 353 | 0.0 | 3.0 | 0.00 | 0.00 | 0.00 | 87 | 1019.5 |
| 20260509204011 | 52 | 273 | 0.0 | 3.0 | 0.00 | 0.00 | 0.00 | 86 | 1019.7 |
| 20260509203011 | 52 | 260 | 1.0 | 3.0 | 0.00 | 0.00 | 0.00 | 86 | 1019.3 |
| 20260509202451 | 52 | 262 | 0.0 | 6.0 | 0.00 | 0.00 | 0.00 | 86 | 1019.4 |
| 20260509201010 | 53 | 289 | 0.0 | 6.0 | 0.00 | 0.00 | 0.00 | 85 | 1019.4 |
| 20260509200010 | 53 | 294 | 0.0 | 4.0 | 0.00 | 0.00 | 0.00 | 84 | 1019.4 |
| 20260509195010 | 53 | 318 | 0.0 | 4.0 | 0.00 | 0.00 | 0.00 | 82 | 1019.2 |
| 20260509194009 | 54 | 347 | 1.0 | 4.0 | 0.00 | 0.00 | 0.00 | 80 | 1019.1 |
| 20260509193009 | 55 | 326 | 1.0 | 3.0 | 0.00 | 0.00 | 0.00 | 78 | 1018.7 |
| 20260509191939 | 55 | 334 | 1.0 | 3.0 | 0.00 | 0.00 | 0.00 | 75 | 1018.7 |
| 20260509190938 | 56 | 288 | 1.0 | 3.0 | 0.00 | 0.00 | 0.00 | 71 | 1018.8 |
| 20260509185941 | 56 | 322 | 0.0 | 3.0 | 0.00 | 0.00 | 0.00 | 68 | 1018.7 |
| 20260509184939 | 57 | 303 | 1.0 | 2.0 | 0.00 | 0.00 | 0.00 | 66 | 1018.8 |
| 20260509183936 | 58 | 237 | 0.0 | 2.0 | 0.00 | 0.00 | 0.00 | 66 | 1018.7 |
| 20260509182936 | 58 | 132 | 0.0 | 3.0 | 0.00 | 0.00 | 0.00 | 65 | 1018.8 |
| 20260509181936 | 59 | 282 | 0.0 | 2.0 | 0.00 | 0.00 | 0.00 | 65 | 1018.7 |
| 20260509180937 | 59 | 292 | 0.0 | 2.0 | 0.00 | 0.00 | 0.00 | 64 | 1018.7 |
| 20260509175905 | 59 | 272 | 0.0 | 4.0 | 0.00 | 0.00 | 0.00 | 61 | 1018.6 |